createdAt,value
2023-04-12T00:00:37.251Z,994.39
2023-04-12T00:01:37.193Z,994.37
2023-04-12T00:02:37.575Z,994.34
2023-04-12T00:03:37.291Z,994.32
2023-04-12T00:04:37.401Z,994.28
2023-04-12T00:05:37.151Z,994.27
2023-04-12T00:06:37.122Z,994.24
2023-04-12T00:07:37.097Z,994.23
2023-04-12T00:08:37.169Z,994.22
2023-04-12T00:09:37.128Z,994.21
2023-04-12T00:10:37.076Z,994.19
2023-04-12T00:11:37.068Z,994.18
2023-04-12T00:12:37.181Z,994.17
2023-04-12T00:13:37.093Z,994.15
2023-04-12T00:14:37.009Z,994.14
2023-04-12T00:15:37.152Z,994.13
2023-04-12T00:16:37.020Z,994.10
2023-04-12T00:17:37.053Z,994.08
2023-04-12T00:18:36.996Z,994.04
2023-04-12T00:19:36.994Z,994.04
2023-04-12T00:20:37.000Z,994.04
2023-04-12T00:21:36.930Z,994.03
2023-04-12T00:22:37.016Z,994.02
2023-04-12T00:23:36.953Z,994.00
2023-04-12T00:24:36.936Z,993.98
2023-04-12T00:25:36.937Z,993.97
2023-04-12T00:26:36.938Z,993.95
2023-04-12T00:27:36.936Z,993.93
2023-04-12T00:28:36.951Z,993.93
2023-04-12T00:29:36.899Z,993.90
2023-04-12T00:30:36.876Z,993.93
2023-04-12T00:31:36.891Z,993.92
2023-04-12T00:32:36.878Z,993.97
2023-04-12T00:33:36.876Z,993.97
2023-04-12T00:34:36.825Z,993.97
2023-04-12T00:35:36.829Z,993.96
2023-04-12T00:36:36.782Z,993.96
2023-04-12T00:37:36.822Z,993.94
2023-04-12T00:38:36.780Z,993.92
2023-04-12T00:39:36.731Z,993.93
2023-04-12T00:40:36.763Z,993.90
2023-04-12T00:41:36.802Z,993.86
2023-04-12T00:42:36.758Z,993.82
2023-04-12T00:43:36.705Z,993.79
2023-04-12T00:44:36.769Z,993.80
2023-04-12T00:45:36.742Z,993.84
2023-04-12T00:46:36.753Z,993.87
2023-04-12T00:47:36.773Z,993.88
2023-04-12T00:48:36.655Z,993.86
2023-04-12T00:49:36.680Z,993.82
2023-04-12T00:50:36.622Z,993.82
2023-04-12T00:51:36.635Z,993.82
2023-04-12T00:52:36.605Z,993.82
2023-04-12T00:53:36.637Z,993.86
2023-04-12T00:54:36.591Z,993.84
2023-04-12T00:55:36.555Z,993.86
2023-04-12T00:56:36.588Z,993.85
2023-04-12T00:57:36.579Z,993.90
2023-04-12T00:58:36.541Z,993.95
2023-04-12T00:59:36.585Z,993.96
2023-04-12T01:00:36.543Z,993.99
2023-04-12T01:01:36.493Z,993.97
2023-04-12T01:02:36.646Z,993.96
2023-04-12T01:03:36.611Z,993.93
2023-04-12T01:04:36.547Z,993.88
2023-04-12T01:05:36.493Z,994.01
2023-04-12T01:06:36.481Z,993.87
2023-04-12T01:07:36.457Z,993.87
2023-04-12T01:08:36.427Z,993.88
2023-04-12T01:09:36.401Z,993.91
2023-04-12T01:10:36.434Z,993.90
2023-04-12T01:11:36.452Z,993.90
2023-04-12T01:12:36.403Z,993.89
2023-04-12T01:13:36.382Z,993.84
2023-04-12T01:14:36.381Z,993.79
2023-04-12T01:15:36.341Z,993.72
2023-04-12T01:16:36.360Z,993.74
2023-04-12T01:17:36.378Z,993.69
2023-04-12T01:18:36.349Z,993.73
2023-04-12T01:19:36.327Z,993.70
2023-04-12T01:20:36.279Z,993.67
2023-04-12T01:21:36.279Z,993.67
2023-04-12T01:22:36.307Z,993.65
2023-04-12T01:23:36.287Z,993.61
2023-04-12T01:24:36.250Z,993.61
2023-04-12T01:25:36.306Z,993.59
2023-04-12T01:26:36.333Z,993.56
2023-04-12T01:27:36.216Z,993.59
2023-04-12T01:28:36.213Z,993.51
2023-04-12T01:29:36.227Z,993.56
2023-04-12T01:30:36.184Z,993.50
2023-04-12T01:31:36.261Z,993.47
2023-04-12T01:32:36.184Z,993.50
2023-04-12T01:33:36.201Z,993.48
2023-04-12T01:34:36.232Z,993.42
2023-04-12T01:35:36.148Z,993.37
2023-04-12T01:36:36.124Z,993.40
2023-04-12T01:37:36.146Z,993.39
2023-04-12T01:38:36.092Z,993.36
2023-04-12T01:39:36.141Z,993.34
2023-04-12T01:40:36.095Z,993.31
2023-04-12T01:41:36.154Z,993.26
2023-04-12T01:42:36.079Z,993.34
2023-04-12T01:43:36.082Z,993.30
2023-04-12T01:44:36.011Z,993.29
2023-04-12T01:45:36.147Z,993.22
2023-04-12T01:46:36.008Z,993.22
2023-04-12T01:47:36.135Z,993.20
2023-04-12T01:48:35.969Z,993.19
2023-04-12T01:49:35.965Z,993.16
2023-04-12T01:50:36.011Z,993.11
2023-04-12T01:51:36.035Z,993.07
2023-04-12T01:52:35.987Z,993.03
2023-04-12T01:53:35.958Z,993.01
2023-04-12T01:54:35.942Z,993.00
2023-04-12T01:55:35.914Z,992.96
2023-04-12T01:56:35.924Z,992.98
2023-04-12T01:57:35.983Z,992.99
2023-04-12T01:58:35.906Z,992.93
2023-04-12T01:59:35.899Z,992.94
2023-04-12T02:00:35.893Z,992.91
2023-04-12T02:01:35.920Z,992.89
2023-04-12T02:02:35.918Z,992.87
2023-04-12T02:03:35.955Z,992.89
2023-04-12T02:04:35.831Z,992.83
2023-04-12T02:05:35.870Z,992.86
2023-04-12T02:06:35.820Z,992.87
2023-04-12T02:07:35.800Z,992.85
2023-04-12T02:08:35.787Z,992.91
2023-04-12T02:09:35.800Z,992.86
2023-04-12T02:10:35.824Z,992.85
2023-04-12T02:11:35.756Z,992.89
2023-04-12T02:12:35.779Z,992.87
2023-04-12T02:13:35.755Z,992.80
2023-04-12T02:14:35.715Z,992.86
2023-04-12T02:15:35.732Z,992.81
2023-04-12T02:16:35.823Z,992.86
2023-04-12T02:17:35.750Z,992.76
2023-04-12T02:18:35.717Z,992.77
2023-04-12T02:19:35.683Z,992.79
2023-04-12T02:20:35.657Z,992.76
2023-04-12T02:21:35.653Z,992.76
2023-04-12T02:22:35.641Z,992.84
2023-04-12T02:23:35.647Z,992.77
2023-04-12T02:24:35.609Z,992.88
2023-04-12T02:25:35.633Z,992.87
2023-04-12T02:26:35.600Z,992.82
2023-04-12T02:27:35.581Z,992.79
2023-04-12T02:28:35.562Z,992.74
2023-04-12T02:29:35.571Z,992.83
2023-04-12T02:30:35.647Z,992.77
2023-04-12T02:31:35.592Z,992.77
2023-04-12T02:32:35.514Z,992.67
2023-04-12T02:33:35.528Z,992.70
2023-04-12T02:34:35.518Z,992.70
2023-04-12T02:35:35.534Z,992.62
2023-04-12T02:36:35.529Z,992.57
2023-04-12T02:37:35.509Z,992.56
2023-04-12T02:38:35.472Z,992.53
2023-04-12T02:39:35.455Z,992.53
2023-04-12T02:40:35.461Z,992.49
2023-04-12T02:41:35.440Z,992.53
2023-04-12T02:42:35.719Z,992.47
2023-04-12T02:43:35.497Z,992.41
2023-04-12T02:44:35.501Z,992.39
2023-04-12T02:45:35.380Z,992.37
2023-04-12T02:46:35.606Z,992.30
2023-04-12T02:47:35.444Z,992.25
2023-04-12T02:48:35.328Z,992.28
2023-04-12T02:49:35.364Z,992.30
2023-04-12T02:50:35.334Z,992.29
2023-04-12T02:51:35.337Z,992.25
2023-04-12T02:52:35.305Z,992.21
2023-04-12T02:53:35.296Z,992.19
2023-04-12T02:54:35.318Z,992.16
2023-04-12T02:55:35.268Z,992.15
2023-04-12T02:56:35.260Z,992.15
2023-04-12T02:57:35.296Z,992.17
2023-04-12T02:58:35.273Z,992.17
2023-04-12T02:59:35.300Z,992.13
2023-04-12T03:00:35.290Z,992.17
2023-04-12T03:01:35.323Z,992.13
2023-04-12T03:02:35.300Z,992.10
2023-04-12T03:03:35.342Z,992.04
2023-04-12T03:04:35.199Z,992.01
2023-04-12T03:05:35.192Z,991.97
2023-04-12T03:06:35.143Z,991.98
2023-04-12T03:07:35.145Z,991.92
2023-04-12T03:08:35.158Z,991.91
2023-04-12T03:09:35.139Z,991.92
2023-04-12T03:10:35.163Z,991.84
2023-04-12T03:11:35.170Z,991.85
2023-04-12T03:12:35.117Z,991.85
2023-04-12T03:13:35.079Z,991.86
2023-04-12T03:14:35.064Z,991.83
2023-04-12T03:15:35.210Z,991.84
2023-04-12T03:16:35.086Z,991.80
2023-04-12T03:17:35.047Z,991.80
2023-04-12T03:18:35.055Z,991.82
2023-04-12T03:19:35.019Z,991.87
2023-04-12T03:20:35.058Z,991.86
2023-04-12T03:21:35.069Z,991.86
2023-04-12T03:22:34.965Z,991.83
2023-04-12T03:23:35.008Z,991.75
2023-04-12T03:24:34.972Z,991.72
2023-04-12T03:25:35.001Z,991.70
2023-04-12T03:26:34.922Z,991.67
2023-04-12T03:27:35.016Z,991.62
2023-04-12T03:28:34.928Z,991.59
2023-04-12T03:29:34.904Z,991.60
2023-04-12T03:30:34.869Z,991.60
2023-04-12T03:31:35.094Z,991.59
2023-04-12T03:32:35.181Z,991.63
2023-04-12T03:33:34.869Z,991.59
2023-04-12T03:34:34.946Z,991.61
2023-04-12T03:35:34.961Z,991.56
2023-04-12T03:36:34.887Z,991.49
2023-04-12T03:37:34.825Z,991.48
2023-04-12T03:38:34.828Z,991.46
2023-04-12T03:39:34.908Z,991.42
2023-04-12T03:40:34.789Z,991.42
2023-04-12T03:41:34.794Z,991.40
2023-04-12T03:42:34.824Z,991.36
2023-04-12T03:43:34.793Z,991.33
2023-04-12T03:44:34.820Z,991.30
2023-04-12T03:45:34.800Z,991.29
2023-04-12T03:46:34.770Z,991.28
2023-04-12T03:47:34.769Z,991.31
2023-04-12T03:48:34.666Z,991.27
2023-04-12T03:49:34.680Z,991.27
2023-04-12T03:50:34.692Z,991.24
2023-04-12T03:51:34.695Z,991.23
2023-04-12T03:52:34.665Z,991.14
2023-04-12T03:53:34.630Z,991.13
2023-04-12T03:54:34.692Z,991.14
2023-04-12T03:55:34.628Z,991.15
2023-04-12T03:56:34.633Z,991.10
2023-04-12T03:57:34.887Z,991.10
2023-04-12T03:58:34.612Z,991.07
2023-04-12T03:59:34.608Z,991.01
2023-04-12T04:00:34.553Z,990.98
2023-04-12T04:01:34.552Z,990.97
2023-04-12T04:02:34.679Z,990.99
2023-04-12T04:03:34.653Z,990.96
2023-04-12T04:04:34.644Z,990.95
2023-04-12T04:05:34.505Z,990.90
2023-04-12T04:06:34.549Z,990.91
2023-04-12T04:07:34.494Z,990.93
2023-04-12T04:08:34.502Z,990.88
2023-04-12T04:09:34.482Z,990.84
2023-04-12T04:10:34.467Z,990.82
2023-04-12T04:11:34.476Z,990.79
2023-04-12T04:12:34.376Z,990.79
2023-04-12T04:13:34.425Z,990.74
2023-04-12T04:14:34.400Z,990.78
2023-04-12T04:15:34.381Z,990.75
2023-04-12T04:16:34.363Z,990.75
2023-04-12T04:17:34.381Z,990.74
2023-04-12T04:18:34.321Z,990.71
2023-04-12T04:19:34.317Z,990.67
2023-04-12T04:20:34.275Z,990.65
2023-04-12T04:21:34.313Z,990.60
2023-04-12T04:22:34.258Z,990.62
2023-04-12T04:23:34.268Z,990.63
2023-04-12T04:24:34.273Z,990.57
2023-04-12T04:25:34.268Z,990.54
2023-04-12T04:26:34.279Z,990.55
2023-04-12T04:27:34.217Z,990.48
2023-04-12T04:28:35.217Z,990.46
2023-04-12T04:29:34.201Z,990.43
2023-04-12T04:30:34.346Z,990.41
2023-04-12T04:31:34.231Z,990.39
2023-04-12T04:32:34.241Z,990.38
2023-04-12T04:33:34.186Z,990.42
2023-04-12T04:34:34.130Z,990.35
2023-04-12T04:35:34.191Z,990.32
2023-04-12T04:36:34.122Z,990.37
2023-04-12T04:37:34.131Z,990.29
2023-04-12T04:38:34.123Z,990.23
2023-04-12T04:39:34.086Z,990.28
2023-04-12T04:40:34.093Z,990.19
2023-04-12T04:41:34.080Z,990.22
2023-04-12T04:42:34.076Z,990.17
2023-04-12T04:43:34.182Z,990.21
2023-04-12T04:44:34.030Z,990.11
2023-04-12T04:45:34.059Z,990.10
2023-04-12T04:46:34.030Z,990.15
2023-04-12T04:47:34.107Z,990.08
2023-04-12T04:48:34.005Z,990.11
2023-04-12T04:49:34.076Z,990.12
2023-04-12T04:50:33.958Z,990.10
2023-04-12T04:51:33.949Z,990.05
2023-04-12T04:52:34.028Z,990.01
2023-04-12T04:53:33.971Z,990.02
2023-04-12T04:54:33.955Z,989.93
2023-04-12T04:55:33.946Z,989.90
2023-04-12T04:56:34.003Z,989.90
2023-04-12T04:57:33.937Z,989.88
2023-04-12T04:58:33.941Z,989.82
2023-04-12T04:59:33.925Z,989.87
2023-04-12T05:00:33.875Z,989.89
2023-04-12T05:01:33.887Z,989.84
2023-04-12T05:02:33.978Z,989.82
2023-04-12T05:03:33.886Z,989.79
2023-04-12T05:04:33.828Z,989.79
2023-04-12T05:05:33.844Z,989.78
2023-04-12T05:06:33.837Z,989.75
2023-04-12T05:07:33.821Z,989.76
2023-04-12T05:08:33.776Z,989.74
2023-04-12T05:09:33.899Z,989.74
2023-04-12T05:10:33.774Z,989.72
2023-04-12T05:11:33.771Z,989.66
2023-04-12T05:12:33.753Z,989.60
2023-04-12T05:13:33.751Z,989.62
2023-04-12T05:14:44.423Z,989.57
2023-04-12T05:15:33.785Z,989.53
2023-04-12T05:16:33.812Z,989.56
2023-04-12T05:17:33.761Z,989.43
2023-04-12T05:18:33.727Z,989.45
2023-04-12T05:19:33.661Z,989.51
2023-04-12T05:20:33.669Z,989.41
2023-04-12T05:21:33.621Z,989.49
2023-04-12T05:22:33.685Z,989.43
2023-04-12T05:23:33.640Z,989.37
2023-04-12T05:24:33.613Z,989.44
2023-04-12T05:25:33.591Z,989.41
2023-04-12T05:26:33.570Z,989.32
2023-04-12T05:27:33.560Z,989.34
2023-04-12T05:28:33.651Z,989.29
2023-04-12T05:29:33.640Z,989.29
2023-04-12T05:30:33.549Z,989.27
2023-04-12T05:31:33.569Z,989.24
2023-04-12T05:32:33.573Z,989.22
2023-04-12T05:33:33.581Z,989.19
2023-04-12T05:34:33.497Z,989.22
2023-04-12T05:35:33.500Z,989.22
2023-04-12T05:36:33.476Z,989.23
2023-04-12T05:37:33.470Z,989.23
2023-04-12T05:38:33.454Z,989.23
2023-04-12T05:39:33.431Z,989.21
2023-04-12T05:40:33.457Z,989.31
2023-04-12T05:41:33.534Z,989.23
2023-04-12T05:42:33.398Z,989.10
2023-04-12T05:43:33.385Z,989.11
2023-04-12T05:44:33.409Z,989.14
2023-04-12T05:45:33.371Z,989.03
2023-04-12T05:46:33.392Z,989.01
2023-04-12T05:47:33.362Z,988.98
2023-04-12T05:48:33.334Z,988.96
2023-04-12T05:49:33.317Z,989.04
2023-04-12T05:50:33.351Z,989.01
2023-04-12T05:51:40.962Z,988.91
2023-04-12T05:52:33.305Z,988.93
2023-04-12T05:53:33.288Z,988.87
2023-04-12T05:54:33.282Z,988.82
2023-04-12T05:55:34.055Z,988.83
2023-04-12T05:56:33.261Z,988.78
2023-04-12T05:57:33.248Z,988.83
2023-04-12T05:58:33.249Z,988.80
2023-04-12T05:59:33.235Z,988.77
2023-04-12T06:00:33.212Z,988.91
2023-04-12T06:01:33.208Z,988.67
2023-04-12T06:02:33.336Z,988.66
2023-04-12T06:03:33.394Z,988.67
2023-04-12T06:04:48.621Z,988.66
2023-04-12T06:05:33.195Z,988.64
2023-04-12T06:06:33.147Z,988.67
2023-04-12T06:07:33.136Z,988.61
2023-04-12T06:08:34.922Z,988.65
2023-04-12T06:09:33.105Z,988.53
2023-04-12T06:10:33.160Z,988.56
2023-04-12T06:11:33.099Z,988.61
2023-04-12T06:12:33.111Z,988.50
2023-04-12T06:13:33.055Z,988.46
2023-04-12T06:14:33.058Z,988.47
2023-04-12T06:15:33.064Z,988.44
2023-04-12T06:16:33.234Z,988.44
2023-04-12T06:17:33.061Z,988.35
2023-04-12T06:18:33.022Z,988.35
2023-04-12T06:19:33.036Z,988.37
2023-04-12T06:20:32.994Z,988.33
2023-04-12T06:21:32.987Z,988.36
2023-04-12T06:22:33.014Z,988.26
2023-04-12T06:23:32.977Z,988.29
2023-04-12T06:24:32.957Z,988.29
2023-04-12T06:25:32.964Z,988.24
2023-04-12T06:26:39.710Z,988.26
2023-04-12T06:27:32.943Z,988.22
2023-04-12T06:28:32.917Z,988.26
2023-04-12T06:29:32.922Z,988.19
2023-04-12T06:30:32.914Z,988.12
2023-04-12T06:31:32.894Z,988.19
2023-04-12T06:32:32.868Z,988.18
2023-04-12T06:33:32.858Z,988.14
2023-04-12T06:34:34.764Z,988.21
2023-04-12T06:35:32.858Z,988.21
2023-04-12T06:36:32.828Z,988.10
2023-04-12T06:37:32.796Z,988.08
2023-04-12T06:38:32.786Z,988.04
2023-04-12T06:39:32.791Z,988.06
2023-04-12T06:40:32.797Z,988.16
2023-04-12T06:41:32.749Z,988.06
2023-04-12T06:42:32.754Z,988.04
2023-04-12T06:43:32.748Z,988.01
2023-04-12T06:44:32.739Z,988.04
2023-04-12T06:45:32.719Z,988.07
2023-04-12T06:46:32.753Z,988.00
2023-04-12T06:47:32.728Z,988.04
2023-04-12T06:48:32.725Z,988.01
2023-04-12T06:49:32.691Z,987.95
2023-04-12T06:50:32.713Z,987.99
2023-04-12T06:51:32.662Z,987.96
2023-04-12T06:52:32.640Z,987.91
2023-04-12T06:53:32.662Z,987.87
2023-04-12T06:54:32.636Z,987.85
2023-04-12T06:55:32.605Z,987.81
2023-04-12T06:56:32.613Z,987.84
2023-04-12T06:57:32.613Z,987.83
2023-04-12T06:58:32.586Z,987.76
2023-04-12T06:59:32.582Z,987.76
2023-04-12T07:00:32.635Z,987.69
2023-04-12T07:01:32.531Z,987.68
2023-04-12T07:02:32.859Z,987.72
2023-04-12T07:03:32.649Z,987.76
2023-04-12T07:04:32.540Z,987.79
2023-04-12T07:05:32.515Z,987.67
2023-04-12T07:06:32.542Z,987.68
2023-04-12T07:07:32.478Z,987.67
2023-04-12T07:08:32.467Z,987.61
2023-04-12T07:09:32.496Z,987.59
2023-04-12T07:10:32.497Z,987.59
2023-04-12T07:11:32.454Z,987.62
2023-04-12T07:12:32.455Z,987.55
2023-04-12T07:13:32.410Z,987.46
2023-04-12T07:14:32.436Z,987.43
2023-04-12T07:15:32.387Z,987.43
2023-04-12T07:16:32.552Z,987.43
2023-04-12T07:17:32.374Z,987.46
2023-04-12T07:18:32.391Z,987.38
2023-04-12T07:19:32.338Z,987.37
2023-04-12T07:20:32.340Z,987.34
2023-04-12T07:21:32.362Z,987.33
2023-04-12T07:22:32.318Z,987.30
2023-04-12T07:23:32.311Z,987.30
2023-04-12T07:24:32.314Z,987.30
2023-04-12T07:25:32.305Z,987.28
2023-04-12T07:26:32.295Z,987.22
2023-04-12T07:27:32.263Z,987.30
2023-04-12T07:28:32.258Z,987.22
2023-04-12T07:29:32.274Z,987.17
2023-04-12T07:30:32.223Z,987.15
2023-04-12T07:31:32.226Z,987.13
2023-04-12T07:32:32.324Z,987.10
2023-04-12T07:33:32.288Z,987.09
2023-04-12T07:34:32.214Z,987.07
2023-04-12T07:35:32.240Z,987.07
2023-04-12T07:36:32.169Z,987.24
2023-04-12T07:37:32.154Z,987.01
2023-04-12T07:38:32.159Z,987.00
2023-04-12T07:39:32.150Z,986.96
2023-04-12T07:40:32.129Z,986.95
2023-04-12T07:41:32.128Z,986.92
2023-04-12T07:42:32.118Z,986.91
2023-04-12T07:43:32.088Z,986.85
2023-04-12T07:44:32.088Z,986.87
2023-04-12T07:45:32.080Z,986.79
2023-04-12T07:46:32.133Z,986.75
2023-04-12T07:47:32.141Z,986.70
2023-04-12T07:48:32.083Z,986.74
2023-04-12T07:49:32.044Z,986.73
2023-04-12T07:50:32.064Z,986.71
2023-04-12T07:51:32.016Z,986.63
2023-04-12T07:52:32.025Z,986.83
2023-04-12T07:53:31.986Z,986.76
2023-04-12T07:54:31.981Z,986.70
2023-04-12T07:55:31.963Z,986.70
2023-04-12T07:56:32.003Z,986.61
2023-04-12T07:57:34.090Z,986.61
2023-04-12T07:58:31.947Z,986.69
2023-04-12T07:59:31.928Z,986.64
2023-04-12T08:00:31.929Z,986.62
2023-04-12T08:01:31.889Z,986.67
2023-04-12T08:02:32.062Z,986.61
2023-04-12T08:03:31.993Z,986.51
2023-04-12T08:04:31.891Z,986.50
2023-04-12T08:05:31.904Z,986.52
2023-04-12T08:06:34.182Z,986.52
2023-04-12T08:07:31.826Z,986.52
2023-04-12T08:08:31.847Z,986.51
2023-04-12T08:09:31.839Z,986.50
2023-04-12T08:10:31.827Z,986.50
2023-04-12T08:11:31.807Z,986.52
2023-04-12T08:12:31.774Z,986.47
2023-04-12T08:13:31.773Z,986.50
2023-04-12T08:14:31.782Z,986.46
2023-04-12T08:15:31.826Z,986.49
2023-04-12T08:16:31.752Z,986.50
2023-04-12T08:17:31.801Z,986.41
2023-04-12T08:18:31.712Z,986.47
2023-04-12T08:19:31.689Z,986.46
2023-04-12T08:20:31.725Z,986.39
2023-04-12T08:21:31.709Z,986.44
2023-04-12T08:22:31.689Z,986.34
2023-04-12T08:23:31.665Z,986.35
2023-04-12T08:24:31.691Z,986.34
2023-04-12T08:25:31.662Z,986.31
2023-04-12T08:26:31.659Z,986.26
2023-04-12T08:27:31.619Z,986.28
2023-04-12T08:28:31.604Z,986.27
2023-04-12T08:29:31.578Z,986.29
2023-04-12T08:30:31.575Z,986.24
2023-04-12T08:31:31.597Z,986.28
2023-04-12T08:32:31.581Z,986.26
2023-04-12T08:33:31.558Z,986.20
2023-04-12T08:34:31.562Z,986.31
2023-04-12T08:35:31.553Z,986.20
2023-04-12T08:36:31.505Z,986.23
2023-04-12T08:37:31.508Z,986.16
2023-04-12T08:38:44.875Z,986.20
2023-04-12T08:39:31.503Z,986.19
2023-04-12T08:40:31.494Z,986.24
2023-04-12T08:41:31.474Z,986.21
2023-04-12T08:42:31.446Z,986.20
2023-04-12T08:43:31.436Z,986.16
2023-04-12T08:44:31.418Z,986.17
2023-04-12T08:45:31.444Z,986.10
2023-04-12T08:46:31.428Z,986.11
2023-04-12T08:47:31.448Z,986.08
2023-04-12T08:48:31.386Z,986.05
2023-04-12T08:49:31.378Z,986.08
2023-04-12T08:50:31.384Z,986.04
2023-04-12T08:51:31.355Z,986.02
2023-04-12T08:52:31.367Z,986.04
2023-04-12T08:53:31.326Z,985.98
2023-04-12T08:54:31.323Z,985.97
2023-04-12T08:55:31.328Z,985.96
2023-04-12T08:56:31.306Z,985.99
2023-04-12T08:57:31.799Z,985.93
2023-04-12T08:58:31.311Z,985.92
2023-04-12T08:59:31.290Z,985.87
2023-04-12T09:00:31.268Z,985.91
2023-04-12T09:01:31.273Z,985.91
2023-04-12T09:02:31.651Z,985.87
2023-04-12T09:03:33.515Z,985.82
2023-04-12T09:04:31.292Z,985.77
2023-04-12T09:05:31.339Z,985.74
2023-04-12T09:06:31.276Z,985.74
2023-04-12T09:07:31.215Z,985.75
2023-04-12T09:08:31.194Z,985.84
2023-04-12T09:09:31.164Z,985.78
2023-04-12T09:10:31.178Z,985.81
2023-04-12T09:11:31.136Z,985.76
2023-04-12T09:12:31.147Z,985.70
2023-04-12T09:13:31.135Z,985.66
2023-04-12T09:14:31.117Z,985.63
2023-04-12T09:15:31.113Z,985.61
2023-04-12T09:16:31.128Z,985.61
2023-04-12T09:17:31.125Z,985.64
2023-04-12T09:18:31.106Z,985.57
2023-04-12T09:19:31.056Z,985.53
2023-04-12T09:20:31.039Z,985.62
2023-04-12T09:21:31.052Z,985.51
2023-04-12T09:22:31.051Z,985.58
2023-04-12T09:23:31.038Z,985.47
2023-04-12T09:24:30.987Z,985.52
2023-04-12T09:25:30.997Z,985.44
2023-04-12T09:26:30.991Z,985.42
2023-04-12T09:27:30.996Z,985.39
2023-04-12T09:28:30.942Z,985.37
2023-04-12T09:29:30.942Z,985.44
2023-04-12T09:30:30.932Z,985.43
2023-04-12T09:31:30.973Z,985.41
2023-04-12T09:32:31.016Z,985.41
2023-04-12T09:33:30.889Z,985.37
2023-04-12T09:34:30.902Z,985.30
2023-04-12T09:35:30.936Z,985.27
2023-04-12T09:36:30.915Z,985.23
2023-04-12T09:37:30.927Z,985.26
2023-04-12T09:38:30.860Z,985.26
2023-04-12T09:39:30.874Z,985.26
2023-04-12T09:40:30.841Z,985.26
2023-04-12T09:41:30.876Z,985.25
2023-04-12T09:42:34.097Z,985.21
2023-04-12T09:43:30.827Z,985.19
2023-04-12T09:44:30.782Z,985.20
2023-04-12T09:45:30.793Z,985.20
2023-04-12T09:46:30.844Z,985.17
2023-04-12T09:47:30.802Z,985.16
2023-04-12T09:48:30.745Z,985.14
2023-04-12T09:49:30.772Z,985.14
2023-04-12T09:50:30.767Z,985.16
2023-04-12T09:51:30.727Z,985.07
2023-04-12T09:52:32.348Z,985.05
2023-04-12T09:53:30.721Z,985.04
2023-04-12T09:54:30.720Z,985.01
2023-04-12T09:55:30.695Z,984.95
2023-04-12T09:56:30.688Z,984.99
2023-04-12T09:57:30.672Z,985.00
2023-04-12T09:58:31.656Z,984.99
2023-04-12T09:59:30.618Z,984.96
2023-04-12T10:00:30.605Z,984.94
2023-04-12T10:01:30.699Z,984.95
2023-04-12T10:02:30.794Z,984.94
2023-04-12T10:03:30.791Z,984.93
2023-04-12T10:04:30.717Z,984.93
2023-04-12T10:05:30.629Z,984.89
2023-04-12T10:06:30.537Z,984.83
2023-04-12T10:07:30.547Z,984.85
2023-04-12T10:08:30.554Z,984.82
2023-04-12T10:09:30.546Z,984.77
2023-04-12T10:10:30.516Z,984.79
2023-04-12T10:11:30.508Z,984.76
2023-04-12T10:12:30.481Z,984.75
2023-04-12T10:13:30.487Z,984.73
2023-04-12T10:14:30.477Z,984.80
2023-04-12T10:15:30.500Z,984.74
2023-04-12T10:16:30.482Z,984.72
2023-04-12T10:17:30.451Z,984.70
2023-04-12T10:18:30.432Z,984.70
2023-04-12T10:19:30.424Z,984.72
2023-04-12T10:20:30.407Z,984.62
2023-04-12T10:21:30.372Z,984.65
2023-04-12T10:22:30.392Z,984.62
2023-04-12T10:23:30.387Z,984.66
2023-04-12T10:24:30.363Z,984.54
2023-04-12T10:25:30.377Z,984.60
2023-04-12T10:26:30.354Z,984.55
2023-04-12T10:27:30.333Z,984.47
2023-04-12T10:28:30.313Z,984.50
2023-04-12T10:29:30.311Z,984.49
2023-04-12T10:30:30.289Z,984.50
2023-04-12T10:31:30.347Z,984.44
2023-04-12T10:32:30.325Z,984.50
2023-04-12T10:33:30.297Z,984.44
2023-04-12T10:34:30.243Z,984.50
2023-04-12T10:35:30.263Z,984.50
2023-04-12T10:36:30.278Z,984.47
2023-04-12T10:37:30.223Z,984.55
2023-04-12T10:38:30.243Z,984.46
2023-04-12T10:39:30.209Z,984.48
2023-04-12T10:40:30.176Z,984.43
2023-04-12T10:41:30.174Z,984.32
2023-04-12T10:42:30.147Z,984.24
2023-04-12T10:43:30.236Z,984.31
2023-04-12T10:44:30.192Z,984.33
2023-04-12T10:45:30.161Z,984.40
2023-04-12T10:46:30.182Z,984.33
2023-04-12T10:47:31.265Z,984.39
2023-04-12T10:48:30.085Z,984.39
2023-04-12T10:49:30.113Z,984.35
2023-04-12T10:50:30.130Z,984.30
2023-04-12T10:51:30.119Z,984.41
2023-04-12T10:52:30.093Z,984.28
2023-04-12T10:53:30.077Z,984.28
2023-04-12T10:54:30.036Z,984.22
2023-04-12T10:55:30.032Z,984.27
2023-04-12T10:56:32.039Z,984.22
2023-04-12T10:57:30.069Z,984.20
2023-04-12T10:58:30.075Z,984.32
2023-04-12T10:59:41.074Z,984.18
2023-04-12T11:00:30.069Z,984.18
2023-04-12T11:01:30.107Z,984.34
2023-04-12T11:02:30.203Z,984.31
2023-04-12T11:03:30.071Z,984.26
2023-04-12T11:04:30.177Z,984.28
2023-04-12T11:05:29.979Z,984.33
2023-04-12T11:06:29.900Z,984.22
2023-04-12T11:07:29.930Z,984.18
2023-04-12T11:08:29.905Z,984.17
2023-04-12T11:09:29.907Z,984.09
2023-04-12T11:10:29.886Z,984.09
2023-04-12T11:11:29.854Z,984.06
2023-04-12T11:12:29.841Z,984.06
2023-04-12T11:13:29.873Z,984.05
2023-04-12T11:14:29.850Z,984.07
2023-04-12T11:15:29.860Z,984.33
2023-04-12T11:16:29.894Z,984.09
2023-04-12T11:17:29.889Z,984.03
2023-04-12T11:18:29.832Z,984.11
2023-04-12T11:19:29.818Z,983.96
2023-04-12T11:20:29.797Z,983.96
2023-04-12T11:21:29.776Z,983.98
2023-04-12T11:22:29.783Z,984.02
2023-04-12T11:23:29.737Z,983.94
2023-04-12T11:24:29.743Z,983.95
2023-04-12T11:25:29.707Z,983.91
2023-04-12T11:26:29.686Z,983.92
2023-04-12T11:27:29.700Z,983.91
2023-04-12T11:28:31.860Z,983.90
2023-04-12T11:29:29.647Z,983.87
2023-04-12T11:30:29.634Z,983.92
2023-04-12T11:31:29.702Z,983.81
2023-04-12T11:32:29.635Z,983.81
2023-04-12T11:33:29.608Z,983.75
2023-04-12T11:34:29.587Z,983.75
2023-04-12T11:35:29.597Z,983.76
2023-04-12T11:36:29.574Z,983.75
2023-04-12T11:37:29.581Z,983.78
2023-04-12T11:38:29.590Z,983.79
2023-04-12T11:39:31.934Z,983.74
2023-04-12T11:40:29.523Z,983.77
2023-04-12T11:41:29.512Z,983.70
2023-04-12T11:42:29.586Z,983.68
2023-04-12T11:43:29.509Z,983.71
2023-04-12T11:44:33.582Z,983.66
2023-04-12T11:45:29.502Z,983.61
2023-04-12T11:46:29.486Z,983.63
2023-04-12T11:47:29.503Z,983.59
2023-04-12T11:48:29.515Z,983.60
2023-04-12T11:49:29.447Z,983.57
2023-04-12T11:50:29.415Z,983.59
2023-04-12T11:51:32.339Z,983.56
2023-04-12T11:52:29.387Z,983.69
2023-04-12T11:53:29.387Z,983.69
2023-04-12T11:54:29.396Z,983.49
2023-04-12T11:55:29.396Z,983.55
2023-04-12T11:56:29.382Z,983.51
2023-04-12T11:57:29.435Z,983.49
2023-04-12T11:58:29.321Z,983.49
2023-04-12T11:59:29.324Z,983.49
2023-04-12T12:00:29.299Z,983.41
2023-04-12T12:01:29.348Z,983.51
2023-04-12T12:02:34.528Z,983.49
2023-04-12T12:03:29.436Z,983.41
2023-04-12T12:04:29.543Z,983.49
2023-04-12T12:05:29.558Z,983.41
2023-04-12T12:06:29.623Z,983.38
2023-04-12T12:07:29.784Z,983.40
2023-04-12T12:08:29.246Z,983.45
2023-04-12T12:09:29.200Z,983.39
2023-04-12T12:10:43.660Z,983.55
2023-04-12T12:11:29.187Z,983.45
2023-04-12T12:12:29.205Z,983.44
2023-04-12T12:13:29.225Z,983.37
2023-04-12T12:14:29.166Z,983.32
2023-04-12T12:15:29.153Z,983.29
2023-04-12T12:16:29.208Z,983.24
2023-04-12T12:17:29.198Z,983.23
2023-04-12T12:18:29.141Z,983.31
2023-04-12T12:19:29.106Z,983.44
2023-04-12T12:20:29.088Z,983.27
2023-04-12T12:21:29.094Z,983.27
2023-04-12T12:22:29.065Z,983.29
2023-04-12T12:23:29.060Z,983.71
2023-04-12T12:24:29.062Z,983.29
2023-04-12T12:25:29.068Z,983.24
2023-04-12T12:26:29.030Z,983.32
2023-04-12T12:27:29.056Z,983.33
2023-04-12T12:28:29.003Z,983.28